sensor_id;sensor_type;location;lat;lon;timestamp;pressure;altitude;pressure_sealevel;temperature;humidity
17764;BME280;22245;52.832;13.816;2023-03-23T00:02:07;100398.25;;;13.13;60.52
17764;BME280;22245;52.832;13.816;2023-03-23T00:05:27;100380.53;;;13.12;60.39
17764;BME280;22245;52.832;13.816;2023-03-23T00:08:50;100383.50;;;13.09;60.21
17764;BME280;22245;52.832;13.816;2023-03-23T00:12:15;100382.84;;;13.07;60.58
17764;BME280;22245;52.832;13.816;2023-03-23T00:15:36;100389.31;;;13.05;60.48
17764;BME280;22245;52.832;13.816;2023-03-23T00:19:03;100376.28;;;13.01;61.11
17764;BME280;22245;52.832;13.816;2023-03-23T00:22:24;100373.91;;;12.98;60.61
17764;BME280;22245;52.832;13.816;2023-03-23T00:25:46;100372.41;;;12.96;60.74
17764;BME280;22245;52.832;13.816;2023-03-23T00:29:11;100362.03;;;12.93;61.04
17764;BME280;22245;52.832;13.816;2023-03-23T00:32:34;100359.66;;;12.90;60.81
17764;BME280;22245;52.832;13.816;2023-03-23T00:35:56;100353.59;;;12.87;60.99
17764;BME280;22245;52.832;13.816;2023-03-23T00:39:17;100360.56;;;12.80;61.40
17764;BME280;22245;52.832;13.816;2023-03-23T00:42:40;100357.84;;;12.72;61.33
17764;BME280;22245;52.832;13.816;2023-03-23T00:46:03;100351.13;;;12.68;61.56
17764;BME280;22245;52.832;13.816;2023-03-23T00:49:28;100351.28;;;12.66;61.49
17764;BME280;22245;52.832;13.816;2023-03-23T00:52:50;100345.94;;;12.66;61.46
17764;BME280;22245;52.832;13.816;2023-03-23T00:56:12;100348.78;;;12.65;61.87
17764;BME280;22245;52.832;13.816;2023-03-23T00:59:33;100325.19;;;12.60;61.55
17764;BME280;22245;52.832;13.816;2023-03-23T01:02:54;100331.00;;;12.55;61.94
17764;BME280;22245;52.832;13.816;2023-03-23T01:06:14;100325.13;;;12.52;61.89
17764;BME280;22245;52.832;13.816;2023-03-23T01:09:37;100314.75;;;12.49;62.28
17764;BME280;22245;52.832;13.816;2023-03-23T01:12:59;100315.19;;;12.44;62.52
17764;BME280;22245;52.832;13.816;2023-03-23T01:16:21;100315.38;;;12.42;62.52
17764;BME280;22245;52.832;13.816;2023-03-23T01:19:41;100309.47;;;12.39;62.29
17764;BME280;22245;52.832;13.816;2023-03-23T01:23:03;100303.47;;;12.37;62.46
17764;BME280;22245;52.832;13.816;2023-03-23T01:26:27;100300.28;;;12.33;62.62
17764;BME280;22245;52.832;13.816;2023-03-23T01:29:48;100292.41;;;12.32;62.55
17764;BME280;22245;52.832;13.816;2023-03-23T01:33:10;100290.19;;;12.27;62.69
17764;BME280;22245;52.832;13.816;2023-03-23T01:36:30;100286.31;;;12.21;62.79
17764;BME280;22245;52.832;13.816;2023-03-23T01:39:55;100283.97;;;12.18;62.81
17764;BME280;22245;52.832;13.816;2023-03-23T01:43:18;100291.09;;;12.18;62.79
17764;BME280;22245;52.832;13.816;2023-03-23T01:46:38;100291.41;;;12.14;63.19
17764;BME280;22245;52.832;13.816;2023-03-23T01:49:59;100290.88;;;12.11;62.97
17764;BME280;22245;52.832;13.816;2023-03-23T01:53:22;100291.88;;;12.10;63.22
17764;BME280;22245;52.832;13.816;2023-03-23T01:56:47;100301.84;;;12.08;63.78
17764;BME280;22245;52.832;13.816;2023-03-23T02:00:11;100294.00;;;12.06;63.34
17764;BME280;22245;52.832;13.816;2023-03-23T02:03:35;100291.47;;;12.05;63.14
17764;BME280;22245;52.832;13.816;2023-03-23T02:06:57;100280.28;;;12.01;64.05
17764;BME280;22245;52.832;13.816;2023-03-23T02:10:20;100270.44;;;12.01;63.52
17764;BME280;22245;52.832;13.816;2023-03-23T02:13:41;100280.28;;;12.01;63.87
17764;BME280;22245;52.832;13.816;2023-03-23T02:17:07;100275.78;;;12.01;64.06
17764;BME280;22245;52.832;13.816;2023-03-23T02:20:48;100265.09;;;12.01;63.83
17764;BME280;22245;52.832;13.816;2023-03-23T02:24:36;100261.72;;;11.99;63.44
17764;BME280;22245;52.832;13.816;2023-03-23T02:28:19;100264.78;;;12.05;63.64
17764;BME280;22245;52.832;13.816;2023-03-23T02:31:56;100248.63;;;12.06;63.37
17764;BME280;22245;52.832;13.816;2023-03-23T02:35:25;100246.78;;;12.07;63.42
17764;BME280;22245;52.832;13.816;2023-03-23T02:38:55;100240.31;;;12.09;63.74
17764;BME280;22245;52.832;13.816;2023-03-23T02:42:21;100235.81;;;12.10;63.38
17764;BME280;22245;52.832;13.816;2023-03-23T02:45:44;100242.81;;;12.11;63.47
17764;BME280;22245;52.832;13.816;2023-03-23T02:49:07;100250.84;;;12.11;63.59
17764;BME280;22245;52.832;13.816;2023-03-23T02:52:31;100250.69;;;12.12;63.73
17764;BME280;22245;52.832;13.816;2023-03-23T02:55:54;100254.03;;;12.14;63.14
17764;BME280;22245;52.832;13.816;2023-03-23T02:59:19;100239.72;;;12.15;63.54
17764;BME280;22245;52.832;13.816;2023-03-23T03:02:43;100244.22;;;12.15;63.11
17764;BME280;22245;52.832;13.816;2023-03-23T03:06:10;100256.56;;;12.16;63.59
17764;BME280;22245;52.832;13.816;2023-03-23T03:09:44;100254.72;;;12.16;63.90
17764;BME280;22245;52.832;13.816;2023-03-23T03:13:11;100250.25;;;12.17;64.26
17764;BME280;22245;52.832;13.816;2023-03-23T03:16:38;100258.25;;;12.17;64.24
17764;BME280;22245;52.832;13.816;2023-03-23T03:20:04;100259.06;;;12.18;65.15
17764;BME280;22245;52.832;13.816;2023-03-23T03:23:31;100253.22;;;12.14;65.08
17764;BME280;22245;52.832;13.816;2023-03-23T03:26:57;100241.69;;;12.13;65.41
17764;BME280;22245;52.832;13.816;2023-03-23T03:30:36;100242.53;;;12.14;65.56
17764;BME280;22245;52.832;13.816;2023-03-23T03:33:59;100251.25;;;12.16;65.88
17764;BME280;22245;52.832;13.816;2023-03-23T03:37:23;100260.25;;;12.15;65.81
17764;BME280;22245;52.832;13.816;2023-03-23T03:40:45;100266.41;;;12.15;66.54
17764;BME280;22245;52.832;13.816;2023-03-23T03:44:07;100271.91;;;12.14;66.05
17764;BME280;22245;52.832;13.816;2023-03-23T03:47:28;100258.84;;;12.11;65.96
17764;BME280;22245;52.832;13.816;2023-03-23T03:50:48;100263.66;;;12.07;65.94
17764;BME280;22245;52.832;13.816;2023-03-23T03:54:11;100259.75;;;12.01;66.43
17764;BME280;22245;52.832;13.816;2023-03-23T03:57:32;100255.13;;;12.04;67.18
17764;BME280;22245;52.832;13.816;2023-03-23T04:00:54;100266.78;;;12.02;68.47
17764;BME280;22245;52.832;13.816;2023-03-23T04:04:20;100261.19;;;11.96;69.65
17764;BME280;22245;52.832;13.816;2023-03-23T04:07:41;100261.78;;;11.90;70.65
17764;BME280;22245;52.832;13.816;2023-03-23T04:11:02;100268.28;;;11.87;71.49
17764;BME280;22245;52.832;13.816;2023-03-23T04:14:25;100268.59;;;11.84;72.83
17764;BME280;22245;52.832;13.816;2023-03-23T04:17:49;100265.22;;;11.82;74.14
17764;BME280;22245;52.832;13.816;2023-03-23T04:21:10;100261.03;;;11.79;74.73
17764;BME280;22245;52.832;13.816;2023-03-23T04:24:31;100244.50;;;11.76;75.55
17764;BME280;22245;52.832;13.816;2023-03-23T04:27:53;100236.75;;;11.72;75.91
17764;BME280;22245;52.832;13.816;2023-03-23T04:31:21;100243.41;;;11.68;77.02
17764;BME280;22245;52.832;13.816;2023-03-23T04:34:48;100250.03;;;11.64;77.12
17764;BME280;22245;52.832;13.816;2023-03-23T04:38:11;100243.47;;;11.58;78.74
17764;BME280;22245;52.832;13.816;2023-03-23T04:41:33;100238.72;;;11.52;79.59
17764;BME280;22245;52.832;13.816;2023-03-23T04:45:29;100243.84;;;11.46;79.75
17764;BME280;22245;52.832;13.816;2023-03-23T04:48:53;100244.44;;;11.39;80.74
17764;BME280;22245;52.832;13.816;2023-03-23T04:52:21;100252.88;;;11.35;81.53
17764;BME280;22245;52.832;13.816;2023-03-23T04:55:48;100255.13;;;11.29;81.29
17764;BME280;22245;52.832;13.816;2023-03-23T04:59:11;100263.56;;;11.25;81.36
17764;BME280;22245;52.832;13.816;2023-03-23T05:02:44;100270.88;;;11.23;82.76
17764;BME280;22245;52.832;13.816;2023-03-23T05:06:06;100276.78;;;11.17;82.94
17764;BME280;22245;52.832;13.816;2023-03-23T05:09:29;100279.75;;;11.13;83.55
17764;BME280;22245;52.832;13.816;2023-03-23T05:12:49;100279.88;;;11.12;84.27
17764;BME280;22245;52.832;13.816;2023-03-23T05:16:11;100286.38;;;11.09;83.60
17764;BME280;22245;52.832;13.816;2023-03-23T05:19:33;100280.06;;;11.10;83.63
17764;BME280;22245;52.832;13.816;2023-03-23T05:23:02;100277.38;;;11.10;84.18
17764;BME280;22245;52.832;13.816;2023-03-23T05:26:28;100267.72;;;11.09;84.43
17764;BME280;22245;52.832;13.816;2023-03-23T05:29:56;100261.41;;;11.10;84.37
17764;BME280;22245;52.832;13.816;2023-03-23T05:33:17;100267.41;;;11.12;84.08
17764;BME280;22245;52.832;13.816;2023-03-23T05:36:44;100267.72;;;11.09;84.47
17764;BME280;22245;52.832;13.816;2023-03-23T05:40:12;100261.41;;;11.10;83.91
17764;BME280;22245;52.832;13.816;2023-03-23T05:43:49;100264.75;;;11.12;84.24
17764;BME280;22245;52.832;13.816;2023-03-23T05:47:30;100263.47;;;11.17;83.86
17764;BME280;22245;52.832;13.816;2023-03-23T05:50:56;100266.00;;;11.18;84.13
17764;BME280;22245;52.832;13.816;2023-03-23T05:54:18;100272.28;;;11.17;84.18
17764;BME280;22245;52.832;13.816;2023-03-23T05:57:41;100273.16;;;11.18;84.49
17764;BME280;22245;52.832;13.816;2023-03-23T06:01:26;100281.28;;;11.16;84.85
17764;BME280;22245;52.832;13.816;2023-03-23T06:04:47;100271.91;;;11.12;84.47
17764;BME280;22245;52.832;13.816;2023-03-23T06:08:19;100274.56;;;11.12;85.12
17764;BME280;22245;52.832;13.816;2023-03-23T06:11:39;100274.56;;;11.12;85.63
17764;BME280;22245;52.832;13.816;2023-03-23T06:15:19;100266.44;;;11.13;85.49
17764;BME280;22245;52.832;13.816;2023-03-23T06:19:04;100263.78;;;11.13;84.85
17764;BME280;22245;52.832;13.816;2023-03-23T06:22:30;100269.91;;;11.14;86.12
17764;BME280;22245;52.832;13.816;2023-03-23T06:26:05;100271.38;;;11.08;85.53
17764;BME280;22245;52.832;13.816;2023-03-23T06:29:27;100275.84;;;11.08;86.15
17764;BME280;22245;52.832;13.816;2023-03-23T06:32:48;100275.00;;;11.07;86.35
17764;BME280;22245;52.832;13.816;2023-03-23T06:36:20;100286.66;;;11.06;85.80
17764;BME280;22245;52.832;13.816;2023-03-23T06:40:03;100290.03;;;11.08;85.21
17764;BME280;22245;52.832;13.816;2023-03-23T06:43:29;100291.69;;;11.09;85.39
17764;BME280;22245;52.832;13.816;2023-03-23T06:47:00;100290.56;;;11.12;85.27
17764;BME280;22245;52.832;13.816;2023-03-23T06:50:26;100296.03;;;11.10;86.04
17764;BME280;22245;52.832;13.816;2023-03-23T06:53:49;100288.03;;;11.10;85.46
17764;BME280;22245;52.832;13.816;2023-03-23T06:57:10;100275.00;;;11.07;85.35
17764;BME280;22245;52.832;13.816;2023-03-23T07:00:31;100274.72;;;11.10;85.79
17764;BME280;22245;52.832;13.816;2023-03-23T07:03:51;100271.50;;;11.07;85.81
17764;BME280;22245;52.832;13.816;2023-03-23T07:07:22;100278.66;;;11.06;86.68
17764;BME280;22245;52.832;13.816;2023-03-23T07:10:52;100288.03;;;11.10;86.16
17764;BME280;22245;52.832;13.816;2023-03-23T07:14:17;100283.81;;;11.18;86.62
17764;BME280;22245;52.832;13.816;2023-03-23T07:17:38;100276.66;;;11.18;86.15
17764;BME280;22245;52.832;13.816;2023-03-23T07:21:09;100274.81;;;11.19;86.35
17764;BME280;22245;52.832;13.816;2023-03-23T07:24:32;100283.50;;;11.21;86.12
17764;BME280;22245;52.832;13.816;2023-03-23T07:28:15;100284.59;;;11.28;86.78
17764;BME280;22245;52.832;13.816;2023-03-23T07:31:37;100282.09;;;11.26;86.42
17764;BME280;22245;52.832;13.816;2023-03-23T07:34:58;100279.25;;;11.28;86.77
17764;BME280;22245;52.832;13.816;2023-03-23T07:38:45;100274.91;;;11.27;87.15
17764;BME280;22245;52.832;13.816;2023-03-23T07:42:09;100291.59;;;11.29;87.01
17764;BME280;22245;52.832;13.816;2023-03-23T07:45:43;100277.97;;;11.32;88.12
17764;BME280;22245;52.832;13.816;2023-03-23T07:49:06;100285.97;;;11.32;88.23
17764;BME280;22245;52.832;13.816;2023-03-23T07:52:34;100282.19;;;11.35;87.50
17764;BME280;22245;52.832;13.816;2023-03-23T07:55:55;100284.44;;;11.39;88.20
17764;BME280;22245;52.832;13.816;2023-03-23T07:59:36;100281.75;;;11.39;87.36
17764;BME280;22245;52.832;13.816;2023-03-23T08:02:58;100267.97;;;11.44;87.81
17764;BME280;22245;52.832;13.816;2023-03-23T08:06:22;100244.34;;;11.49;88.17
17764;BME280;22245;52.832;13.816;2023-03-23T08:10:05;100241.81;;;11.57;86.85
17764;BME280;22245;52.832;13.816;2023-03-23T08:13:58;100242.03;;;11.64;86.83
17764;BME280;22245;52.832;13.816;2023-03-23T08:17:49;100248.28;;;11.73;87.26
17764;BME280;22245;52.832;13.816;2023-03-23T08:21:34;100264.38;;;11.81;86.96
17764;BME280;22245;52.832;13.816;2023-03-23T08:25:17;100258.22;;;11.81;86.96
17764;BME280;22245;52.832;13.816;2023-03-23T08:29:05;100282.91;;;11.83;87.45
17764;BME280;22245;52.832;13.816;2023-03-23T08:32:42;100272.25;;;11.83;87.56
17764;BME280;22245;52.832;13.816;2023-03-23T08:36:29;100254.25;;;11.85;87.17
17764;BME280;22245;52.832;13.816;2023-03-23T08:40:10;100271.63;;;11.89;87.14
17764;BME280;22245;52.832;13.816;2023-03-23T08:43:42;100274.44;;;11.87;86.79
17764;BME280;22245;52.832;13.816;2023-03-23T08:47:22;100283.53;;;11.95;86.49
17764;BME280;22245;52.832;13.816;2023-03-23T08:50:55;100266.09;;;12.00;87.44
17764;BME280;22245;52.832;13.816;2023-03-23T08:54:42;100268.31;;;12.05;87.76
17764;BME280;22245;52.832;13.816;2023-03-23T08:58:28;100277.84;;;12.08;86.73
17764;BME280;22245;52.832;13.816;2023-03-23T09:01:57;100269.75;;;12.18;87.09
17764;BME280;22245;52.832;13.816;2023-03-23T09:05:36;100273.78;;;12.22;86.58
17764;BME280;22245;52.832;13.816;2023-03-23T09:09:18;100280.50;;;12.26;85.78
17764;BME280;22245;52.832;13.816;2023-03-23T09:12:40;100292.53;;;12.30;86.10
17764;BME280;22245;52.832;13.816;2023-03-23T09:16:02;100288.75;;;12.33;85.72
17764;BME280;22245;52.832;13.816;2023-03-23T09:19:24;100292.94;;;12.35;85.79
17764;BME280;22245;52.832;13.816;2023-03-23T09:22:47;100300.78;;;12.37;85.08
17764;BME280;22245;52.832;13.816;2023-03-23T09:26:08;100304.63;;;12.34;84.33
17764;BME280;22245;52.832;13.816;2023-03-23T09:29:28;100292.09;;;12.35;84.84
17764;BME280;22245;52.832;13.816;2023-03-23T09:32:51;100283.41;;;12.33;85.00
17764;BME280;22245;52.832;13.816;2023-03-23T09:36:12;100277.75;;;12.36;84.52
17764;BME280;22245;52.832;13.816;2023-03-23T09:39:36;100272.97;;;12.39;84.39
17764;BME280;22245;52.832;13.816;2023-03-23T09:43:11;100283.63;;;12.39;84.38
17764;BME280;22245;52.832;13.816;2023-03-23T09:46:50;100278.81;;;12.43;83.97
17764;BME280;22245;52.832;13.816;2023-03-23T09:50:16;100275.69;;;12.48;83.89
17764;BME280;22245;52.832;13.816;2023-03-23T09:53:41;100268.50;;;12.48;83.11
17764;BME280;22245;52.832;13.816;2023-03-23T09:57:03;100273.69;;;12.50;83.60
17764;BME280;22245;52.832;13.816;2023-03-23T10:00:30;100280.94;;;12.57;82.85
17764;BME280;22245;52.832;13.816;2023-03-23T10:03:58;100287.16;;;12.66;82.14
17764;BME280;22245;52.832;13.816;2023-03-23T10:07:24;100278.31;;;12.66;81.83
17764;BME280;22245;52.832;13.816;2023-03-23T10:10:54;100277.38;;;12.75;81.97
17764;BME280;22245;52.832;13.816;2023-03-23T10:14:30;100274.44;;;12.86;81.21
17764;BME280;22245;52.832;13.816;2023-03-23T10:17:56;100276.50;;;12.93;80.96
17764;BME280;22245;52.832;13.816;2023-03-23T10:21:21;100300.41;;;13.02;77.96
17764;BME280;22245;52.832;13.816;2023-03-23T10:24:49;100298.13;;;13.08;77.30
17764;BME280;22245;52.832;13.816;2023-03-23T10:28:12;100287.13;;;13.11;77.17
17764;BME280;22245;52.832;13.816;2023-03-23T10:31:37;100284.81;;;13.16;77.19
17764;BME280;22245;52.832;13.816;2023-03-23T10:35:02;100279.16;;;13.27;77.74
17764;BME280;22245;52.832;13.816;2023-03-23T10:38:26;100268.00;;;13.32;76.12
17764;BME280;22245;52.832;13.816;2023-03-23T10:41:51;100263.69;;;13.39;76.21
17764;BME280;22245;52.832;13.816;2023-03-23T10:45:17;100262.50;;;13.42;74.61
17764;BME280;22245;52.832;13.816;2023-03-23T10:48:38;100259.91;;;13.50;74.42
17764;BME280;22245;52.832;13.816;2023-03-23T10:52:04;100259.59;;;13.53;73.29
17764;BME280;22245;52.832;13.816;2023-03-23T10:55:36;100257.41;;;13.57;72.82
17764;BME280;22245;52.832;13.816;2023-03-23T10:59:11;100262.28;;;13.62;72.44
17764;BME280;22245;52.832;13.816;2023-03-23T11:02:37;100264.09;;;13.61;72.96
17764;BME280;22245;52.832;13.816;2023-03-23T11:05:59;100260.28;;;13.64;72.78
17764;BME280;22245;52.832;13.816;2023-03-23T11:09:34;100272.66;;;13.73;72.75
17764;BME280;22245;52.832;13.816;2023-03-23T11:12:57;100275.34;;;13.81;72.07
17764;BME280;22245;52.832;13.816;2023-03-23T11:16:29;100289.72;;;13.72;70.78
17764;BME280;22245;52.832;13.816;2023-03-23T11:19:51;100277.53;;;13.78;70.53
17764;BME280;22245;52.832;13.816;2023-03-23T11:23:19;100272.19;;;13.78;70.99
17764;BME280;22245;52.832;13.816;2023-03-23T11:26:43;100274.88;;;13.86;70.95
17764;BME280;22245;52.832;13.816;2023-03-23T11:30:09;100284.91;;;13.92;69.84
17764;BME280;22245;52.832;13.816;2023-03-23T11:33:36;100286.25;;;13.96;70.63
17764;BME280;22245;52.832;13.816;2023-03-23T11:37:01;100287.59;;;14.00;69.59
17764;BME280;22245;52.832;13.816;2023-03-23T11:40:24;100292.81;;;14.10;69.73
17764;BME280;22245;52.832;13.816;2023-03-23T11:43:46;100288.81;;;14.14;69.56
17764;BME280;22245;52.832;13.816;2023-03-23T11:47:13;100290.47;;;14.15;68.94
17764;BME280;22245;52.832;13.816;2023-03-23T11:50:49;100307.72;;;14.21;69.05
17764;BME280;22245;52.832;13.816;2023-03-23T11:54:17;100302.22;;;14.23;67.35
17764;BME280;22245;52.832;13.816;2023-03-23T11:57:40;100298.53;;;14.24;67.93
17764;BME280;22245;52.832;13.816;2023-03-23T12:01:05;100298.34;;;14.25;68.00
17764;BME280;22245;52.832;13.816;2023-03-23T12:04:40;100299.88;;;14.28;67.55
17764;BME280;22245;52.832;13.816;2023-03-23T12:08:17;100289.66;;;14.31;66.74
17764;BME280;22245;52.832;13.816;2023-03-23T12:11:49;100307.06;;;14.27;66.24
17764;BME280;22245;52.832;13.816;2023-03-23T12:15:19;100296.69;;;14.24;66.86
17764;BME280;22245;52.832;13.816;2023-03-23T12:18:47;100299.88;;;14.28;66.79
17764;BME280;22245;52.832;13.816;2023-03-23T12:22:21;100301.69;;;14.36;67.01
17764;BME280;22245;52.832;13.816;2023-03-23T12:26:17;100300.03;;;14.35;66.75
17764;BME280;22245;52.832;13.816;2023-03-23T12:29:53;100308.59;;;14.30;68.51
17764;BME280;22245;52.832;13.816;2023-03-23T12:33:22;100303.72;;;14.33;68.15
17764;BME280;22245;52.832;13.816;2023-03-23T12:36:56;100292.50;;;14.38;68.67
17764;BME280;22245;52.832;13.816;2023-03-23T12:40:37;100286.16;;;14.39;67.36
17764;BME280;22245;52.832;13.816;2023-03-23T12:44:07;100281.97;;;14.45;66.83
17764;BME280;22245;52.832;13.816;2023-03-23T12:47:37;100271.41;;;14.52;67.49
17764;BME280;22245;52.832;13.816;2023-03-23T12:51:08;100285.97;;;14.49;65.17
17764;BME280;22245;52.832;13.816;2023-03-23T12:54:33;100267.22;;;14.49;64.85
17764;BME280;22245;52.832;13.816;2023-03-23T12:57:59;100271.06;;;14.55;65.34
17764;BME280;22245;52.832;13.816;2023-03-23T13:01:25;100259.53;;;14.46;64.20
17764;BME280;22245;52.832;13.816;2023-03-23T13:04:51;100272.59;;;14.49;64.27
17764;BME280;22245;52.832;13.816;2023-03-23T13:08:15;100272.59;;;14.49;64.47
17764;BME280;22245;52.832;13.816;2023-03-23T13:11:39;100278.44;;;14.53;64.02
17764;BME280;22245;52.832;13.816;2023-03-23T13:15:07;100295.03;;;14.48;63.44
17764;BME280;22245;52.832;13.816;2023-03-23T13:18:43;100279.09;;;14.55;63.70
17764;BME280;22245;52.832;13.816;2023-03-23T13:22:09;100269.88;;;14.66;64.22
17764;BME280;22245;52.832;13.816;2023-03-23T13:25:45;100272.91;;;14.71;62.88
17764;BME280;22245;52.832;13.816;2023-03-23T13:29:12;100284.81;;;14.76;63.09
17764;BME280;22245;52.832;13.816;2023-03-23T13:32:36;100266.22;;;14.83;62.79
17764;BME280;22245;52.832;13.816;2023-03-23T13:36:03;100280.28;;;14.85;62.12
17764;BME280;22245;52.832;13.816;2023-03-23T13:39:28;100281.09;;;14.86;62.28
17764;BME280;22245;52.832;13.816;2023-03-23T13:42:51;100261.00;;;14.82;62.32
17764;BME280;22245;52.832;13.816;2023-03-23T13:46:24;100253.81;;;14.82;61.34
17764;BME280;22245;52.832;13.816;2023-03-23T13:49:49;100248.09;;;14.85;62.49
17764;BME280;22245;52.832;13.816;2023-03-23T13:53:21;100239.38;;;14.92;62.06
17764;BME280;22245;52.832;13.816;2023-03-23T13:56:47;100233.00;;;14.93;62.10
17764;BME280;22245;52.832;13.816;2023-03-23T14:00:22;100236.16;;;14.96;61.81
17764;BME280;22245;52.832;13.816;2023-03-23T14:03:47;100242.69;;;15.02;61.75
17764;BME280;22245;52.832;13.816;2023-03-23T14:07:11;100244.31;;;15.11;61.23
17764;BME280;22245;52.832;13.816;2023-03-23T14:10:36;100244.66;;;15.16;60.91
17764;BME280;22245;52.832;13.816;2023-03-23T14:14:01;100234.72;;;15.25;61.39
17764;BME280;22245;52.832;13.816;2023-03-23T14:17:24;100239.78;;;15.20;60.32
17764;BME280;22245;52.832;13.816;2023-03-23T14:20:46;100242.75;;;15.25;59.96
17764;BME280;22245;52.832;13.816;2023-03-23T14:24:10;100245.31;;;15.18;59.48
17764;BME280;22245;52.832;13.816;2023-03-23T14:27:32;100261.94;;;15.14;59.37
17764;BME280;22245;52.832;13.816;2023-03-23T14:30:54;100261.44;;;15.10;60.57
17764;BME280;22245;52.832;13.816;2023-03-23T14:34:19;100275.38;;;15.05;63.24
17764;BME280;22245;52.832;13.816;2023-03-23T14:37:41;100286.81;;;14.83;64.63
17764;BME280;22245;52.832;13.816;2023-03-23T14:41:03;100300.06;;;14.51;69.89
17764;BME280;22245;52.832;13.816;2023-03-23T14:44:28;100269.75;;;14.26;72.37
17764;BME280;22245;52.832;13.816;2023-03-23T14:47:51;100250.16;;;14.17;74.88
17764;BME280;22245;52.832;13.816;2023-03-23T14:51:18;100261.19;;;14.22;76.38
17764;BME280;22245;52.832;13.816;2023-03-23T14:54:40;100253.34;;;14.37;78.26
17764;BME280;22245;52.832;13.816;2023-03-23T14:58:06;100262.22;;;14.46;78.11
17764;BME280;22245;52.832;13.816;2023-03-23T15:01:32;100262.19;;;14.54;78.94
17764;BME280;22245;52.832;13.816;2023-03-23T15:04:58;100266.38;;;14.57;77.52
17764;BME280;22245;52.832;13.816;2023-03-23T15:08:24;100265.06;;;14.61;78.77
17764;BME280;22245;52.832;13.816;2023-03-23T15:11:55;100261.69;;;14.67;78.78
17764;BME280;22245;52.832;13.816;2023-03-23T15:15:21;100261.69;;;14.67;78.73
17764;BME280;22245;52.832;13.816;2023-03-23T15:18:48;100261.69;;;14.67;78.80
17764;BME280;22245;52.832;13.816;2023-03-23T15:22:18;100269.88;;;14.74;78.97
17764;BME280;22245;52.832;13.816;2023-03-23T15:25:47;100283.13;;;14.75;79.41
17764;BME280;22245;52.832;13.816;2023-03-23T15:29:15;100279.78;;;14.73;79.02
17764;BME280;22245;52.832;13.816;2023-03-23T15:32:39;100281.28;;;14.59;77.72
17764;BME280;22245;52.832;13.816;2023-03-23T15:36:08;100265.19;;;14.59;77.76
17764;BME280;22245;52.832;13.816;2023-03-23T15:39:29;100262.03;;;14.64;77.70
17764;BME280;22245;52.832;13.816;2023-03-23T15:43:14;100269.72;;;14.84;76.36
17764;BME280;22245;52.832;13.816;2023-03-23T15:46:36;100272.38;;;14.92;71.98
17764;BME280;22245;52.832;13.816;2023-03-23T15:50:12;100258.84;;;15.25;71.29
17764;BME280;22245;52.832;13.816;2023-03-23T15:53:36;100280.28;;;15.42;70.14
17764;BME280;22245;52.832;13.816;2023-03-23T15:56:58;100287.16;;;15.36;69.73
17764;BME280;22245;52.832;13.816;2023-03-23T16:00:21;100293.16;;;14.90;69.37
17764;BME280;22245;52.832;13.816;2023-03-23T16:03:46;100298.38;;;14.58;69.59
17764;BME280;22245;52.832;13.816;2023-03-23T16:07:09;100302.56;;;14.36;71.45
17764;BME280;22245;52.832;13.816;2023-03-23T16:10:35;100305.53;;;14.16;71.77
17764;BME280;22245;52.832;13.816;2023-03-23T16:13:57;100306.06;;;14.03;71.89
17764;BME280;22245;52.832;13.816;2023-03-23T16:17:19;100309.00;;;13.92;72.69
17764;BME280;22245;52.832;13.816;2023-03-23T16:20:41;100316.38;;;13.90;73.26
17764;BME280;22245;52.832;13.816;2023-03-23T16:24:03;100319.00;;;13.73;73.66
17764;BME280;22245;52.832;13.816;2023-03-23T16:27:26;100321.34;;;13.68;74.46
17764;BME280;22245;52.832;13.816;2023-03-23T16:30:48;100339.69;;;13.63;74.20
17764;BME280;22245;52.832;13.816;2023-03-23T16:34:10;100370.97;;;13.63;75.14
17764;BME280;22245;52.832;13.816;2023-03-23T16:37:31;100400.72;;;13.33;75.87
17764;BME280;22245;52.832;13.816;2023-03-23T16:40:54;100384.72;;;13.15;76.64
17764;BME280;22245;52.832;13.816;2023-03-23T16:44:17;100381.53;;;13.11;77.36
17764;BME280;22245;52.832;13.816;2023-03-23T16:47:39;100388.50;;;13.04;76.68
17764;BME280;22245;52.832;13.816;2023-03-23T16:51:02;100388.81;;;13.01;77.03
17764;BME280;22245;52.832;13.816;2023-03-23T16:54:23;100390.63;;;13.00;76.89
17764;BME280;22245;52.832;13.816;2023-03-23T16:57:45;100392.78;;;12.97;76.80
17764;BME280;22245;52.832;13.816;2023-03-23T17:01:08;100404.25;;;12.89;77.26
17764;BME280;22245;52.832;13.816;2023-03-23T17:04:30;100412.66;;;12.76;77.33
17764;BME280;22245;52.832;13.816;2023-03-23T17:07:53;100421.59;;;12.67;78.01
17764;BME280;22245;52.832;13.816;2023-03-23T17:11:15;100418.38;;;12.63;78.48
17764;BME280;22245;52.832;13.816;2023-03-23T17:14:37;100432.59;;;12.64;78.65
17764;BME280;22245;52.832;13.816;2023-03-23T17:18:01;100429.06;;;12.63;78.77
17764;BME280;22245;52.832;13.816;2023-03-23T17:21:24;100436.09;;;12.64;79.17
17764;BME280;22245;52.832;13.816;2023-03-23T17:24:46;100443.78;;;12.67;79.82
17764;BME280;22245;52.832;13.816;2023-03-23T17:28:08;100440.00;;;12.70;79.96
17764;BME280;22245;52.832;13.816;2023-03-23T17:31:30;100443.66;;;12.69;79.64
17764;BME280;22245;52.832;13.816;2023-03-23T17:34:53;100441.97;;;12.68;79.64
17764;BME280;22245;52.832;13.816;2023-03-23T17:38:15;100419.06;;;12.65;80.14
17764;BME280;22245;52.832;13.816;2023-03-23T17:41:38;100433.09;;;12.67;80.23
17764;BME280;22245;52.832;13.816;2023-03-23T17:44:59;100426.09;;;12.66;79.75
17764;BME280;22245;52.832;13.816;2023-03-23T17:48:21;100436.94;;;12.65;80.37